createdAt,value
2019-04-14T07:21:30.940Z,18.55
2019-04-14T07:24:06.557Z,16.32
2019-04-14T07:26:43.286Z,14.94
2019-04-14T07:29:16.744Z,13.94
2019-04-14T07:32:14.141Z,13.17
2019-04-14T07:35:05.969Z,12.48
2019-04-14T07:37:54.674Z,11.93
2019-04-14T07:40:52.323Z,11.46
2019-04-14T07:43:50.222Z,11.00
2019-04-14T07:46:49.334Z,10.59
2019-04-14T07:49:57.740Z,10.21
2019-04-14T07:52:57.331Z,9.92
2019-04-14T07:55:38.881Z,9.61
2019-04-14T07:58:25.037Z,9.41
2019-04-14T08:01:06.858Z,9.20
2019-04-14T08:03:58.960Z,9.00
2019-04-14T08:06:33.191Z,8.82
2019-04-14T08:09:08.642Z,8.68
2019-04-14T08:11:41.811Z,8.53
2019-04-14T08:14:17.358Z,8.44
2019-04-14T08:16:54.128Z,8.34
2019-04-14T08:19:27.740Z,8.27
2019-04-14T08:22:06.905Z,8.20
2019-04-14T08:24:40.190Z,8.14
2019-04-14T08:27:16.382Z,10.68
2019-04-14T08:29:50.696Z,13.65
2019-04-14T08:32:23.930Z,12.76
2019-04-14T08:34:57.241Z,11.74
2019-04-14T08:37:30.466Z,11.07
2019-04-14T08:40:03.728Z,10.65
2019-04-14T08:43:03.241Z,10.38
2019-04-14T08:45:46.265Z,10.14
2019-04-14T08:48:31.869Z,9.96
2019-04-14T08:51:17.471Z,9.82
2019-04-14T08:54:04.169Z,9.69
2019-04-14T08:57:11.194Z,9.56
2019-04-14T09:00:06.843Z,9.46
2019-04-14T09:02:55.480Z,9.37
2019-04-14T09:05:48.613Z,9.32
2019-04-14T09:08:29.487Z,9.27
2019-04-14T09:11:10.981Z,9.24
2019-04-14T09:13:44.455Z,9.23
2019-04-14T09:16:19.032Z,9.24
2019-04-14T09:19:07.120Z,9.24
2019-04-14T09:21:31.541Z,9.25
2019-04-14T09:24:06.902Z,9.27
2019-04-14T09:26:48.287Z,9.31
2019-04-14T09:29:23.599Z,9.35
2019-04-14T09:31:57.231Z,9.39
2019-04-14T09:34:31.964Z,9.46
2019-04-14T09:37:15.146Z,9.52
2019-04-14T09:39:48.412Z,9.58
2019-04-14T09:42:24.980Z,9.66
2019-04-14T09:44:58.233Z,9.73
2019-04-14T09:47:31.589Z,9.85
2019-04-14T09:50:06.815Z,9.93
2019-04-14T09:52:40.033Z,10.06
2019-04-14T09:55:15.063Z,10.23
2019-04-14T09:57:48.295Z,10.36
2019-04-14T10:00:39.863Z,10.53
2019-04-14T10:03:17.271Z,10.73
2019-04-14T10:05:53.395Z,10.90
2019-04-14T10:08:27.029Z,11.00
2019-04-14T10:11:00.127Z,11.10
2019-04-14T10:13:33.518Z,11.17
2019-04-14T10:16:06.726Z,11.21
2019-04-14T10:18:39.804Z,11.28
2019-04-14T10:21:17.698Z,11.34
2019-04-14T10:23:48.755Z,11.42
2019-04-14T10:26:22.421Z,11.42
2019-04-14T10:28:55.577Z,11.48
2019-04-14T10:31:29.847Z,11.52
2019-04-14T10:34:03.620Z,11.58
2019-04-14T10:36:36.870Z,11.62
2019-04-14T10:39:13.258Z,11.70
2019-04-14T10:41:54.136Z,11.74
2019-04-14T10:44:27.530Z,11.83
2019-04-14T10:47:00.736Z,11.94
2019-04-14T10:49:34.013Z,12.05
2019-04-14T10:52:11.000Z,12.17
2019-04-14T10:54:47.839Z,12.25
2019-04-14T10:57:22.574Z,12.35
2019-04-14T11:00:00.983Z,12.45
2019-04-14T11:02:42.768Z,12.55
2019-04-14T11:05:17.486Z,12.63
2019-04-14T11:08:02.029Z,12.73
2019-04-14T11:10:42.198Z,12.80
2019-04-14T11:13:18.033Z,12.94
2019-04-14T11:15:52.425Z,13.01
2019-04-14T11:18:28.965Z,13.11
2019-04-14T11:21:07.472Z,13.15
2019-04-14T11:23:42.667Z,13.24
2019-04-14T11:26:20.560Z,13.31
2019-04-14T11:28:56.741Z,13.38
2019-04-14T11:32:03.683Z,13.42
2019-04-14T11:34:55.613Z,13.53
2019-04-14T11:37:43.874Z,13.62
2019-04-14T11:40:19.537Z,13.69
2019-04-14T11:42:57.648Z,13.76
2019-04-14T11:45:34.115Z,13.85
2019-04-14T11:48:07.390Z,13.87
2019-04-14T11:50:43.673Z,13.97
2019-04-14T11:53:19.325Z,13.98
2019-04-14T11:55:52.630Z,14.03
2019-04-14T11:58:29.142Z,14.03
2019-04-14T12:01:31.120Z,14.03
2019-04-14T12:04:23.954Z,14.04
2019-04-14T12:07:30.242Z,14.08
2019-04-14T12:10:17.331Z,14.13
2019-04-14T12:12:51.284Z,14.18
2019-04-14T12:15:25.658Z,14.24
2019-04-14T12:17:59.303Z,14.25
2019-04-14T12:20:33.278Z,14.32
2019-04-14T12:23:12.458Z,14.41
2019-04-14T12:25:46.457Z,14.45
2019-04-14T12:28:21.857Z,14.52
2019-04-14T12:30:55.471Z,14.59
2019-04-14T12:33:28.580Z,14.65
2019-04-14T12:36:01.729Z,14.69
2019-04-14T12:38:34.862Z,14.72
2019-04-14T12:41:10.536Z,14.73
2019-04-14T12:44:11.807Z,14.73
2019-04-14T12:47:03.161Z,14.76
2019-04-14T12:49:40.265Z,14.77
2019-04-14T12:52:21.537Z,14.76
2019-04-14T12:54:59.090Z,14.77
2019-04-14T12:57:39.967Z,14.82
2019-04-14T13:00:20.342Z,14.86
2019-04-14T13:02:53.634Z,14.87
2019-04-14T13:05:26.691Z,14.91
2019-04-14T13:07:59.781Z,14.88
2019-04-14T13:10:32.907Z,14.90
2019-04-14T13:13:06.144Z,14.87
2019-04-14T13:15:39.406Z,14.90
2019-04-14T13:18:15.376Z,14.93
2019-04-14T13:20:48.558Z,14.96
2019-04-14T13:23:21.700Z,15.00
2019-04-14T13:25:55.288Z,15.04
2019-04-14T13:28:28.480Z,15.04
2019-04-14T13:31:01.606Z,15.08
2019-04-14T13:33:35.543Z,15.08
2019-04-14T13:36:08.597Z,15.10
2019-04-14T13:38:41.649Z,15.04
2019-04-14T13:41:14.729Z,15.06
2019-04-14T13:43:47.763Z,15.04
2019-04-14T13:46:21.567Z,15.03
2019-04-14T13:48:55.493Z,15.03
2019-04-14T13:51:28.602Z,15.06
2019-04-14T13:54:06.761Z,15.06
2019-04-14T13:56:40.897Z,15.07
2019-04-14T13:59:15.296Z,15.07
2019-04-14T14:01:48.416Z,15.07
2019-04-14T14:04:22.955Z,15.10
2019-04-14T14:07:05.628Z,15.11
2019-04-14T14:09:41.603Z,15.10
2019-04-14T14:12:37.164Z,15.11
2019-04-14T14:15:34.666Z,15.11
2019-04-14T14:18:22.700Z,15.10
2019-04-14T14:21:18.381Z,15.08
2019-04-14T14:24:10.158Z,15.07
2019-04-14T14:26:43.916Z,15.01
2019-04-14T14:29:23.339Z,15.00
2019-04-14T14:31:57.415Z,14.97
2019-04-14T14:34:39.778Z,14.93
2019-04-14T14:37:12.902Z,14.91
2019-04-14T14:39:46.584Z,14.88
2019-04-14T14:42:22.222Z,14.86
2019-04-14T14:45:38.183Z,14.80
2019-04-14T14:48:26.870Z,14.80
2019-04-14T14:51:29.364Z,14.79
2019-04-14T14:54:02.401Z,14.76
2019-04-14T14:56:35.985Z,14.73
2019-04-14T14:59:10.378Z,14.73
2019-04-14T15:01:46.470Z,14.68
2019-04-14T15:04:20.080Z,14.69
2019-04-14T15:06:53.357Z,14.65
2019-04-14T15:09:30.866Z,14.65
2019-04-14T15:12:05.868Z,14.60
2019-04-14T15:15:17.262Z,14.58
2019-04-14T15:17:52.254Z,14.56
2019-04-14T15:20:26.510Z,14.52
2019-04-14T15:23:01.408Z,14.49
2019-04-14T15:25:37.299Z,14.47
2019-04-14T15:28:12.306Z,14.43
2019-04-14T15:30:45.605Z,14.38
2019-04-14T15:33:18.903Z,14.35
2019-04-14T15:35:52.217Z,14.36
2019-04-14T15:38:26.906Z,14.31
2019-04-14T15:41:01.264Z,14.25
2019-04-14T15:43:36.870Z,14.25
2019-04-14T15:46:10.634Z,14.20
2019-04-14T15:48:44.010Z,14.18
2019-04-14T15:51:17.352Z,14.15
2019-04-14T15:53:50.711Z,14.14
2019-04-14T15:56:48.688Z,14.11
2019-04-14T15:59:41.699Z,14.07
2019-04-14T16:02:41.509Z,14.03
2019-04-14T16:05:29.107Z,14.03
2019-04-14T16:08:21.114Z,13.97
2019-04-14T16:10:59.784Z,13.94
2019-04-14T16:13:54.810Z,13.92
2019-04-14T16:16:50.387Z,13.89
2019-04-14T16:19:47.127Z,13.85
2019-04-14T16:22:24.382Z,13.80
2019-04-14T16:24:57.675Z,13.77
2019-04-14T16:27:49.611Z,13.76
2019-04-14T16:30:35.184Z,13.70
2019-04-14T16:33:24.637Z,13.69
2019-04-14T16:35:59.922Z,13.65
2019-04-14T16:38:35.181Z,13.63
2019-04-14T16:41:12.798Z,13.62
2019-04-14T16:43:46.160Z,13.56
2019-04-14T16:46:20.507Z,13.55
2019-04-14T16:48:57.096Z,13.49
2019-04-14T16:51:35.001Z,13.46
2019-04-14T16:54:19.142Z,13.42
2019-04-14T16:57:06.550Z,13.39
2019-04-14T16:59:42.890Z,13.34
2019-04-14T17:02:21.734Z,13.31
2019-04-14T17:04:56.534Z,13.27
2019-04-14T17:07:31.285Z,13.22
2019-04-14T17:10:04.585Z,13.17
2019-04-14T17:13:00.823Z,13.15
2019-04-14T17:16:29.099Z,13.11
2019-04-14T17:19:57.211Z,13.03
2019-04-14T17:22:47.203Z,13.00
2019-04-14T17:25:28.046Z,12.96
2019-04-14T17:28:25.769Z,12.88
2019-04-14T17:31:08.781Z,12.86
2019-04-14T17:33:48.214Z,12.80
2019-04-14T17:36:32.478Z,12.75
2019-04-14T17:39:31.786Z,12.73
2019-04-14T17:42:26.486Z,12.63
2019-04-14T17:45:18.396Z,12.58
2019-04-14T17:48:10.395Z,12.55
2019-04-14T17:50:58.161Z,12.48
2019-04-14T17:54:00.437Z,12.45
2019-04-14T17:56:55.774Z,12.39
2019-04-14T17:59:42.841Z,12.31
2019-04-14T18:02:27.517Z,12.24
2019-04-14T18:05:12.789Z,12.18
2019-04-14T18:07:58.984Z,12.10
2019-04-14T18:10:41.877Z,12.07
2019-04-14T18:13:31.031Z,11.98
2019-04-14T18:16:22.662Z,11.91
2019-04-14T18:19:12.460Z,11.83
2019-04-14T18:21:45.673Z,11.73
2019-04-14T18:24:19.107Z,11.69
2019-04-14T18:26:52.193Z,11.62
2019-04-14T18:29:45.070Z,11.55
2019-04-14T18:32:32.186Z,11.48
2019-04-14T18:35:23.247Z,11.42
2019-04-14T18:38:26.445Z,11.32
2019-04-14T18:41:19.832Z,11.28
2019-04-14T18:44:11.774Z,11.21
2019-04-14T18:46:53.840Z,11.12
2019-04-14T18:49:48.821Z,11.08
2019-04-14T18:52:39.926Z,11.04
2019-04-14T18:55:28.074Z,10.97
2019-04-14T18:58:17.776Z,10.93
2019-04-14T19:00:56.525Z,10.86
2019-04-14T19:03:30.064Z,10.83
2019-04-14T19:06:15.168Z,10.75
2019-04-14T19:08:46.334Z,10.68
2019-04-14T19:11:37.442Z,10.63
2019-04-14T19:14:11.534Z,10.58
2019-04-14T19:16:48.065Z,10.52
2019-04-14T19:20:01.808Z,10.45
2019-04-14T19:23:02.359Z,10.38
2019-04-14T19:26:06.822Z,10.31
2019-04-14T19:28:50.065Z,10.25
2019-04-14T19:31:26.651Z,10.20
2019-04-14T19:34:00.009Z,10.17
2019-04-14T19:36:37.243Z,10.13
2019-04-14T19:39:14.537Z,10.04
2019-04-14T19:41:47.986Z,10.03
2019-04-14T19:44:21.382Z,9.98
2019-04-14T19:46:54.683Z,9.93
2019-04-14T19:49:28.072Z,9.90
2019-04-14T19:52:04.266Z,9.86
2019-04-14T19:54:42.014Z,9.80
2019-04-14T19:57:15.235Z,9.79
2019-04-14T19:59:48.475Z,9.73
2019-04-14T20:02:25.035Z,9.67
2019-04-14T20:05:00.904Z,9.65
2019-04-14T20:07:35.775Z,9.63
2019-04-14T20:10:15.788Z,9.56
2019-04-14T20:12:45.214Z,9.53
2019-04-14T20:15:30.294Z,9.46
2019-04-14T20:18:11.437Z,9.45
2019-04-14T20:21:04.811Z,9.38
2019-04-14T20:23:57.336Z,9.34
2019-04-14T20:26:56.151Z,9.31
2019-04-14T20:29:39.358Z,9.25
2019-04-14T20:32:23.712Z,9.21
2019-04-14T20:34:57.463Z,9.13
2019-04-14T20:37:32.381Z,9.08
2019-04-14T20:40:06.942Z,9.04
2019-04-14T20:42:41.775Z,9.00
2019-04-14T20:45:17.155Z,8.96
2019-04-14T20:47:54.796Z,8.92
2019-04-14T20:50:31.120Z,8.85
2019-04-14T20:53:07.878Z,8.82
2019-04-14T20:55:47.182Z,8.77
2019-04-14T20:58:19.544Z,8.69
2019-04-14T21:01:00.312Z,8.65
2019-04-14T21:03:43.824Z,8.58
2019-04-14T21:06:30.266Z,8.51
2019-04-14T21:09:30.985Z,8.47
2019-04-14T21:12:19.235Z,8.37
2019-04-14T21:15:16.351Z,8.32
2019-04-14T21:18:06.473Z,8.27
2019-04-14T21:20:55.631Z,8.18
2019-04-14T21:23:52.881Z,8.16
2019-04-14T21:26:36.208Z,8.06
2019-04-14T21:29:30.444Z,8.04
2019-04-14T21:32:22.923Z,7.96
2019-04-14T21:35:09.151Z,7.90
2019-04-14T21:37:57.981Z,7.86
2019-04-14T21:40:50.959Z,7.82
2019-04-14T21:43:22.946Z,7.75
2019-04-14T21:45:59.920Z,7.69
2019-04-14T21:48:38.161Z,7.65
2019-04-14T21:51:11.770Z,7.61
2019-04-14T21:53:46.793Z,7.58
2019-04-14T21:56:33.701Z,7.52
2019-04-14T21:59:21.663Z,7.51
2019-04-14T22:02:15.235Z,7.45
2019-04-14T22:05:13.603Z,7.38
2019-04-14T22:08:15.454Z,7.35
2019-04-14T22:10:54.801Z,7.30
2019-04-14T22:13:33.783Z,7.26
2019-04-14T22:16:08.903Z,7.19
2019-04-14T22:18:47.005Z,7.16
2019-04-14T22:21:20.945Z,7.11
2019-04-14T22:24:01.826Z,7.09
2019-04-14T22:26:37.628Z,7.02
2019-04-14T22:29:10.867Z,6.96
2019-04-14T22:31:48.989Z,6.95
2019-04-14T22:34:22.261Z,6.88
2019-04-14T22:36:55.448Z,6.85
2019-04-14T22:39:40.217Z,6.78
2019-04-14T22:42:07.576Z,6.75
2019-04-14T22:44:43.063Z,6.71
2019-04-14T22:47:20.296Z,6.67
2019-04-14T22:49:55.307Z,6.64
2019-04-14T22:52:28.534Z,6.58
2019-04-14T22:55:05.748Z,6.56
2019-04-14T22:57:39.054Z,6.52
2019-04-14T23:00:22.421Z,6.47
2019-04-14T23:03:07.813Z,6.43
2019-04-14T23:06:07.396Z,6.41
2019-04-14T23:08:45.352Z,6.35
2019-04-14T23:11:37.544Z,6.33
2019-04-14T23:14:17.760Z,6.31
2019-04-14T23:17:21.514Z,6.24
2019-04-14T23:20:23.146Z,6.20
2019-04-14T23:23:18.267Z,6.14
2019-04-14T23:26:02.540Z,6.13
2019-04-14T23:28:32.485Z,6.10
2019-04-14T23:31:05.849Z,6.06
2019-04-14T23:33:41.457Z,6.02
2019-04-14T23:36:24.676Z,6.00
2019-04-14T23:38:57.896Z,5.95
2019-04-14T23:41:31.141Z,5.92
2019-04-14T23:44:05.835Z,5.90
2019-04-14T23:46:39.000Z,5.85
2019-04-14T23:49:12.663Z,5.86
2019-04-14T23:51:45.910Z,5.81
2019-04-14T23:54:20.429Z,5.78
2019-04-14T23:57:04.695Z,5.75
2019-04-14T23:59:28.633Z,5.72
